Naples, ID (83847)

2:38 PM PDT on October 23, 2014 (GMT -0700)
The KE7MDQ WARN Station | Change Station
CLOSE
Current Station
Personal Weather Station
Location: Bonners Ferry, ID
Elevation: 1830 ft
Nearby Weather Stations

Elev 1830 ft 48.67 °N, 116.34 °W | Updated 1 second ago

Overcast
Overcast
54.3 °F
Feels Like 54.3 °F
N
3.1
Wind Variable Wind from NE
Gusts 3.1 mph

Today
High -- | Low -- °F
--% Chance of Precip.
Yesterday
High -- | Low -- °F
Precip. -- in
7:17 AM 5:40 PM
Waning Crescent, 0% visible
Pressure 29.74 in
Visibility 10.0 miles
Clouds Few 1500 ft
Few 4300 ft
Overcast 5000 ft
Dew Point 54 °F
Humidity 99%
Rainfall 0.40 in
Snow Depth 1 in
UV 1 out of 12
Pollen .40 out of 12
Air Quality Not available.
Flu Activity Sporadic
METAR K65S 232115Z AUTO 17005KT 10SM FEW015 FEW043 OVC050 10/09 A2974 RMK AO2

More Conditions Fewer Conditions

Pressure 29.74 in
Visibility 10.0 miles
Clouds Few 1500 ft
Few 4300 ft
Overcast 5000 ft
Dew Point 54 °F
Humidity 99%
Rainfall 0.40 in
Snow Depth 1 in
UV 1 out of 12
Pollen .40 out of 12
Air Quality Not available.
Flu Activity Sporadic
METAR K65S 232115Z AUTO 17005KT 10SM FEW015 FEW043 OVC050 10/09 A2974 RMK AO2

More Conditions Fewer Conditions

10-Day Weather Forecast

Almanac

Astronomy

Oct. 23, 2014 Rise Set
Actual Time 7:17 AM PDT 5:40 PM PDT
Civil Twilight 6:45 AM PDT 6:12 PM PDT
Nautical Twilight 6:08 AM PDT 6:49 PM PDT
Astronomical Twilight 5:32 AM PDT 7:25 PM PDT
Moon 7:00 AM PDT 5:44 PM PDT
Length of Visible Light 11h 27m
Length of Day
10h 22m
Tomorrow will be 3m 22s shorter.
Waning Crescent, 0% of the Moon is Illuminated
Today
Waning Crescent
Oct 23
New
Oct 30
First Quarter
Nov 6
Full
Nov 14
Last Quarter

Today's Extremes

State Highs State Lows

Community

WunderPhotos

Upload Photos

1,764,379 photos uploaded!

WunderBlogs® & News

Nearby

Snow Depth

Station Depth Elevation
Myrtle Creek 1 in 3520 ft
Hidden Lake 1 in 5040 ft
Schweitzer Basin 0 in 6090 ft
Bear Mountain 0 in 5400 ft
Mosquito Ridge 0 in 5200 ft

Earthquake Activity

City Distance Mag. Time & Date
No recent earthquake activity has been reported nearby.
Minimum magnitude displayed is 2.5.

Coastal Water Temperatures

Place Temperature
No Stations Reporting

Nearby Weather Stations